createdAt,value
2018-07-07T00:00:48.152Z,51
2018-07-07T00:01:48.880Z,51
2018-07-07T00:02:49.591Z,51
2018-07-07T00:03:50.305Z,51
2018-07-07T00:04:51.032Z,51
2018-07-07T00:05:51.745Z,51
2018-07-07T00:06:52.460Z,51
2018-07-07T00:07:53.175Z,51
2018-07-07T00:08:53.901Z,52
2018-07-07T00:09:54.613Z,52
2018-07-07T00:10:55.326Z,52
2018-07-07T00:11:56.040Z,52
2018-07-07T00:12:56.766Z,52
2018-07-07T00:13:57.481Z,52
2018-07-07T00:14:58.193Z,52
2018-07-07T00:15:58.906Z,53
2018-07-07T00:16:59.619Z,53
2018-07-07T00:18:00.332Z,53
2018-07-07T00:19:01.045Z,53
2018-07-07T00:20:01.759Z,53
2018-07-07T00:21:02.472Z,53
2018-07-07T00:22:03.186Z,53
2018-07-07T00:23:03.898Z,53
2018-07-07T00:24:04.611Z,54
2018-07-07T00:25:05.329Z,54
2018-07-07T00:26:06.038Z,54
2018-07-07T00:27:06.775Z,54
2018-07-07T00:28:07.494Z,54
2018-07-07T00:29:08.226Z,54
2018-07-07T00:30:08.937Z,55
2018-07-07T00:31:09.647Z,54
2018-07-07T00:32:10.362Z,55
2018-07-07T00:33:11.075Z,55
2018-07-07T00:34:11.802Z,55
2018-07-07T00:35:12.515Z,55
2018-07-07T00:36:13.229Z,55
2018-07-07T00:37:13.958Z,55
2018-07-07T00:38:14.671Z,56
2018-07-07T00:39:15.398Z,56
2018-07-07T00:40:16.112Z,56
2018-07-07T00:41:16.826Z,56
2018-07-07T00:42:17.537Z,56
2018-07-07T00:43:18.249Z,56
2018-07-07T00:44:18.962Z,57
2018-07-07T00:45:19.674Z,57
2018-07-07T00:46:20.386Z,57
2018-07-07T00:47:21.113Z,57
2018-07-07T00:48:21.825Z,57
2018-07-07T00:49:22.540Z,57
2018-07-07T00:50:23.266Z,58
2018-07-07T00:51:23.978Z,57
2018-07-07T00:52:24.706Z,58
2018-07-07T00:53:25.418Z,58
2018-07-07T00:54:26.183Z,58
2018-07-07T00:55:26.846Z,58
2018-07-07T00:56:27.560Z,58
2018-07-07T00:57:28.285Z,58
2018-07-07T00:58:29.008Z,59
2018-07-07T00:59:29.735Z,58
2018-07-07T01:00:30.461Z,58
2018-07-07T01:01:31.173Z,59
2018-07-07T01:02:31.885Z,59
2018-07-07T01:03:32.597Z,59
2018-07-07T01:04:33.310Z,59
2018-07-07T01:05:34.036Z,59
2018-07-07T01:06:34.745Z,59
2018-07-07T01:07:35.456Z,60
2018-07-07T01:08:36.184Z,60
2018-07-07T01:09:36.897Z,60
2018-07-07T01:10:37.609Z,60
2018-07-07T01:11:38.334Z,61
2018-07-07T01:12:39.047Z,61
2018-07-07T01:13:39.775Z,61
2018-07-07T01:14:40.487Z,61
2018-07-07T01:15:41.213Z,61
2018-07-07T01:16:41.927Z,62
2018-07-07T01:17:42.640Z,61
2018-07-07T01:18:43.353Z,62
2018-07-07T01:19:44.066Z,62
2018-07-07T01:20:44.800Z,62
2018-07-07T01:21:45.504Z,62
2018-07-07T01:22:46.229Z,62
2018-07-07T01:23:46.955Z,62
2018-07-07T01:24:47.682Z,62
2018-07-07T01:25:48.394Z,63
2018-07-07T01:26:49.120Z,63
2018-07-07T01:27:49.833Z,63
2018-07-07T01:28:50.546Z,64
2018-07-07T01:29:51.257Z,64
2018-07-07T01:30:51.984Z,64
2018-07-07T01:31:52.696Z,64
2018-07-07T01:32:53.411Z,64
2018-07-07T01:33:54.125Z,64
2018-07-07T01:34:54.838Z,65
2018-07-07T01:35:55.550Z,65
2018-07-07T01:36:56.264Z,65
2018-07-07T01:37:56.978Z,65
2018-07-07T01:38:57.704Z,66
2018-07-07T01:39:58.416Z,66
2018-07-07T01:40:59.128Z,67
2018-07-07T01:41:59.840Z,67
2018-07-07T01:43:00.552Z,67
2018-07-07T01:44:01.275Z,68
2018-07-07T01:45:01.988Z,67
2018-07-07T01:46:02.719Z,68
2018-07-07T01:47:03.428Z,68
2018-07-07T01:48:04.141Z,68
2018-07-07T01:49:04.855Z,68
2018-07-07T01:50:05.566Z,68
2018-07-07T01:51:06.282Z,68
2018-07-07T01:52:07.007Z,68
2018-07-07T01:53:07.731Z,68
2018-07-07T01:54:08.442Z,68
2018-07-07T01:55:09.155Z,69
2018-07-07T01:56:09.879Z,69
2018-07-07T01:57:10.591Z,69
2018-07-07T01:58:11.303Z,69
2018-07-07T01:59:12.018Z,69
2018-07-07T02:00:12.729Z,69
2018-07-07T02:01:13.442Z,69
2018-07-07T02:02:14.156Z,69
2018-07-07T02:03:14.867Z,69
2018-07-07T02:04:15.595Z,69
2018-07-07T02:05:16.322Z,70
2018-07-07T02:06:17.034Z,70
2018-07-07T02:07:17.748Z,70
2018-07-07T02:08:18.473Z,70
2018-07-07T02:09:19.186Z,70
2018-07-07T02:10:19.903Z,71
2018-07-07T02:11:20.622Z,71
2018-07-07T02:12:21.350Z,71
2018-07-07T02:13:22.065Z,71
2018-07-07T02:14:22.784Z,71
2018-07-07T02:15:23.505Z,71
2018-07-07T02:16:24.216Z,71
2018-07-07T02:17:24.928Z,71
2018-07-07T02:18:25.639Z,72
2018-07-07T02:19:26.355Z,72
2018-07-07T02:20:27.064Z,72
2018-07-07T02:21:27.776Z,73
2018-07-07T02:22:28.490Z,73
2018-07-07T02:23:29.216Z,73
2018-07-07T02:24:29.929Z,72
2018-07-07T02:25:30.640Z,73
2018-07-07T02:26:31.352Z,73
2018-07-07T02:27:32.066Z,73
2018-07-07T02:28:32.782Z,73
2018-07-07T02:29:33.504Z,74
2018-07-07T02:30:34.218Z,74
2018-07-07T02:31:34.934Z,73
2018-07-07T02:32:35.657Z,74
2018-07-07T02:33:36.383Z,74
2018-07-07T02:34:37.108Z,75
2018-07-07T02:35:37.837Z,75
2018-07-07T02:36:38.550Z,75
2018-07-07T02:37:39.262Z,75
2018-07-07T02:38:39.976Z,76
2018-07-07T02:39:40.703Z,76
2018-07-07T02:40:41.413Z,76
2018-07-07T02:41:42.130Z,76
2018-07-07T02:42:42.842Z,76
2018-07-07T02:43:43.555Z,76
2018-07-07T02:44:44.268Z,77
2018-07-07T02:45:44.994Z,77
2018-07-07T02:46:45.711Z,77
2018-07-07T02:47:46.418Z,77
2018-07-07T02:48:47.131Z,77
2018-07-07T02:49:47.843Z,76
2018-07-07T02:50:48.557Z,77
2018-07-07T02:51:49.271Z,77
2018-07-07T02:52:49.985Z,77
2018-07-07T02:53:50.712Z,77
2018-07-07T02:54:51.445Z,77
2018-07-07T02:55:52.157Z,77
2018-07-07T02:56:52.884Z,77
2018-07-07T02:57:53.597Z,76
2018-07-07T02:58:54.312Z,77
2018-07-07T02:59:55.025Z,78
2018-07-07T03:00:55.738Z,78
2018-07-07T03:01:56.452Z,78
2018-07-07T03:02:57.166Z,78
2018-07-07T03:03:57.900Z,78
2018-07-07T03:04:58.610Z,78
2018-07-07T03:05:59.327Z,78
2018-07-07T03:07:00.040Z,78
2018-07-07T03:08:00.767Z,79
2018-07-07T03:09:01.481Z,78
2018-07-07T03:10:02.193Z,78
2018-07-07T03:11:02.909Z,79
2018-07-07T03:12:03.633Z,79
2018-07-07T03:13:04.352Z,79
2018-07-07T03:14:05.076Z,80
2018-07-07T03:15:05.791Z,80
2018-07-07T03:16:06.519Z,80
2018-07-07T03:17:07.249Z,80
2018-07-07T03:18:07.965Z,80
2018-07-07T03:19:08.682Z,80
2018-07-07T03:20:09.411Z,81
2018-07-07T03:21:10.126Z,81
2018-07-07T03:22:10.843Z,81
2018-07-07T03:23:11.555Z,81
2018-07-07T03:24:12.288Z,81
2018-07-07T03:25:13.003Z,81
2018-07-07T03:26:13.719Z,82
2018-07-07T03:27:14.435Z,81
2018-07-07T03:28:15.148Z,81
2018-07-07T03:29:15.865Z,81
2018-07-07T03:30:16.593Z,81
2018-07-07T03:31:17.307Z,81
2018-07-07T03:32:18.023Z,81
2018-07-07T03:33:18.740Z,81
2018-07-07T03:34:19.456Z,81
2018-07-07T03:35:20.175Z,82
2018-07-07T03:36:20.891Z,82
2018-07-07T03:37:21.608Z,82
2018-07-07T03:38:22.323Z,82
2018-07-07T03:39:23.043Z,82
2018-07-07T03:40:23.764Z,82
2018-07-07T03:41:24.470Z,82
2018-07-07T03:42:25.187Z,83
2018-07-07T03:43:25.905Z,83
2018-07-07T03:44:26.620Z,83
2018-07-07T03:45:27.335Z,83
2018-07-07T03:46:28.053Z,83
2018-07-07T03:47:28.771Z,82
2018-07-07T03:48:29.501Z,82
2018-07-07T03:49:30.216Z,83
2018-07-07T03:50:30.945Z,83
2018-07-07T03:51:31.661Z,83
2018-07-07T03:52:32.381Z,83
2018-07-07T03:53:33.096Z,84
2018-07-07T03:54:33.824Z,83
2018-07-07T03:55:34.555Z,83
2018-07-07T03:56:35.270Z,84
2018-07-07T03:57:35.988Z,83
2018-07-07T03:58:36.706Z,83
2018-07-07T03:59:37.435Z,83
2018-07-07T04:00:38.152Z,84
2018-07-07T04:01:38.880Z,83
2018-07-07T04:02:39.599Z,83
2018-07-07T04:03:40.315Z,83
2018-07-07T04:04:41.034Z,83
2018-07-07T04:05:41.746Z,83
2018-07-07T04:06:42.463Z,84
2018-07-07T04:07:43.182Z,83
2018-07-07T04:08:43.899Z,84
2018-07-07T04:09:44.632Z,83
2018-07-07T04:10:45.348Z,83
2018-07-07T04:11:46.077Z,83
2018-07-07T04:12:46.794Z,83
2018-07-07T04:13:47.528Z,84
2018-07-07T04:14:48.242Z,83
2018-07-07T04:15:48.957Z,83
2018-07-07T04:16:49.688Z,83
2018-07-07T04:17:50.405Z,83
2018-07-07T04:18:51.138Z,83
2018-07-07T04:19:51.859Z,83
2018-07-07T04:20:52.586Z,83
2018-07-07T04:21:53.303Z,84
2018-07-07T04:22:54.020Z,83
2018-07-07T04:23:54.740Z,84
2018-07-07T04:24:55.456Z,83
2018-07-07T04:25:56.176Z,83
2018-07-07T04:26:56.892Z,83
2018-07-07T04:27:57.610Z,83
2018-07-07T04:28:58.332Z,83
2018-07-07T04:29:59.045Z,83
2018-07-07T04:30:59.763Z,83
2018-07-07T04:32:00.479Z,83
2018-07-07T04:33:01.198Z,83
2018-07-07T04:34:01.917Z,83
2018-07-07T04:35:02.635Z,83
2018-07-07T04:36:03.354Z,83
2018-07-07T04:37:04.069Z,83
2018-07-07T04:38:04.787Z,83
2018-07-07T04:39:05.506Z,83
2018-07-07T04:40:06.220Z,83
2018-07-07T04:41:06.938Z,83
2018-07-07T04:42:07.657Z,83
2018-07-07T04:43:08.388Z,82
2018-07-07T04:44:09.105Z,82
2018-07-07T04:45:09.822Z,82
2018-07-07T04:46:10.539Z,82
2018-07-07T04:47:11.256Z,82
2018-07-07T04:48:11.971Z,82
2018-07-07T04:49:12.689Z,82
2018-07-07T04:50:13.408Z,82
2018-07-07T04:51:14.128Z,82
2018-07-07T04:52:14.843Z,82
2018-07-07T04:53:15.562Z,82
2018-07-07T04:54:16.289Z,82
2018-07-07T04:55:17.007Z,82
2018-07-07T04:56:17.722Z,82
2018-07-07T04:57:18.454Z,82
2018-07-07T04:58:19.171Z,82
2018-07-07T04:59:19.888Z,82
2018-07-07T05:00:20.606Z,82
2018-07-07T05:01:21.324Z,82
2018-07-07T05:02:22.041Z,82
2018-07-07T05:03:22.760Z,82
2018-07-07T05:04:23.488Z,82
2018-07-07T05:05:24.196Z,82
2018-07-07T05:06:24.926Z,82
2018-07-07T05:07:25.645Z,82
2018-07-07T05:08:26.364Z,82
2018-07-07T05:09:27.081Z,82
2018-07-07T05:10:27.798Z,82
2018-07-07T05:11:28.517Z,82
2018-07-07T05:12:29.236Z,83
2018-07-07T05:13:29.957Z,83
2018-07-07T05:14:30.672Z,82
2018-07-07T05:15:31.433Z,82
2018-07-07T05:16:32.121Z,82
2018-07-07T05:17:32.838Z,83
2018-07-07T05:18:33.570Z,83
2018-07-07T05:19:34.303Z,82
2018-07-07T05:20:35.020Z,82
2018-07-07T05:21:35.738Z,83
2018-07-07T05:22:36.467Z,82
2018-07-07T05:23:37.186Z,82
2018-07-07T05:24:37.904Z,82
2018-07-07T05:25:38.623Z,82
2018-07-07T05:26:39.340Z,82
2018-07-07T05:27:40.059Z,82
2018-07-07T05:28:40.777Z,82
2018-07-07T05:29:41.494Z,82
2018-07-07T05:30:42.216Z,81
2018-07-07T05:31:42.955Z,82
2018-07-07T05:32:43.656Z,81
2018-07-07T05:33:44.375Z,82
2018-07-07T05:34:45.095Z,82
2018-07-07T05:35:45.818Z,81
2018-07-07T05:36:46.535Z,82
2018-07-07T05:37:47.257Z,81
2018-07-07T05:38:47.977Z,82
2018-07-07T05:39:48.695Z,81
2018-07-07T05:40:49.426Z,82
2018-07-07T05:41:50.146Z,82
2018-07-07T05:42:50.867Z,82
2018-07-07T05:43:51.588Z,81
2018-07-07T05:44:52.309Z,82
2018-07-07T05:45:53.029Z,82
2018-07-07T05:46:53.751Z,82
2018-07-07T05:47:54.485Z,82
2018-07-07T05:48:55.204Z,82
2018-07-07T05:49:55.931Z,82
2018-07-07T05:50:56.654Z,82
2018-07-07T05:51:57.375Z,82
2018-07-07T05:52:58.095Z,82
2018-07-07T05:53:58.828Z,82
2018-07-07T05:54:59.551Z,82
2018-07-07T05:56:00.285Z,82
2018-07-07T05:57:01.006Z,82
2018-07-07T05:58:01.723Z,82
2018-07-07T05:59:02.443Z,81
2018-07-07T06:00:03.176Z,82
2018-07-07T06:01:03.909Z,82
2018-07-07T06:02:04.627Z,82
2018-07-07T06:03:05.347Z,82
2018-07-07T06:04:06.067Z,81
2018-07-07T06:05:06.786Z,82
2018-07-07T06:06:07.505Z,82
2018-07-07T06:07:08.228Z,82
2018-07-07T06:08:08.949Z,82
2018-07-07T06:09:09.670Z,82
2018-07-07T06:10:10.390Z,82
2018-07-07T06:11:11.122Z,82
2018-07-07T06:12:11.855Z,82
2018-07-07T06:13:12.586Z,82
2018-07-07T06:14:13.310Z,82
2018-07-07T06:15:14.029Z,82
2018-07-07T06:16:14.750Z,82
2018-07-07T06:17:15.469Z,81
2018-07-07T06:18:16.251Z,81
2018-07-07T06:19:16.923Z,81
2018-07-07T06:20:17.644Z,81
2018-07-07T06:21:18.365Z,80
2018-07-07T06:22:19.098Z,80
2018-07-07T06:23:19.819Z,80
2018-07-07T06:24:20.554Z,80
2018-07-07T06:25:21.274Z,79
2018-07-07T06:26:22.032Z,79
2018-07-07T06:27:22.714Z,80
2018-07-07T06:28:23.433Z,79
2018-07-07T06:29:24.152Z,79
2018-07-07T06:30:24.875Z,79
2018-07-07T06:31:25.594Z,78
2018-07-07T06:32:26.314Z,78
2018-07-07T06:33:27.035Z,77
2018-07-07T06:34:27.756Z,77
2018-07-07T06:35:28.493Z,77
2018-07-07T06:36:29.215Z,77
2018-07-07T06:37:29.936Z,76
2018-07-07T06:38:30.656Z,76
2018-07-07T06:39:31.376Z,75
2018-07-07T06:40:32.100Z,76
2018-07-07T06:41:32.819Z,76
2018-07-07T06:42:33.556Z,74
2018-07-07T06:43:34.287Z,74
2018-07-07T06:44:35.007Z,74
2018-07-07T06:45:35.729Z,74
2018-07-07T06:46:36.451Z,74
2018-07-07T06:47:37.171Z,73
2018-07-07T06:48:37.896Z,74
2018-07-07T06:49:38.613Z,74
2018-07-07T06:50:39.347Z,74
2018-07-07T06:51:40.084Z,73
2018-07-07T06:52:40.816Z,73
2018-07-07T06:53:41.578Z,73
2018-07-07T06:54:42.285Z,73
2018-07-07T06:55:43.006Z,72
2018-07-07T06:56:43.726Z,71
2018-07-07T06:57:44.460Z,71
2018-07-07T06:58:45.181Z,71
2018-07-07T06:59:45.907Z,71
2018-07-07T07:00:46.626Z,71
2018-07-07T07:01:47.349Z,71
2018-07-07T07:02:48.087Z,71
2018-07-07T07:03:48.806Z,69
2018-07-07T07:04:49.526Z,68
2018-07-07T07:05:50.264Z,69
2018-07-07T07:06:50.999Z,68
2018-07-07T07:07:51.721Z,68
2018-07-07T07:08:52.443Z,68
2018-07-07T07:09:53.166Z,68
2018-07-07T07:10:53.891Z,68
2018-07-07T07:11:54.633Z,68
2018-07-07T07:12:55.339Z,68
2018-07-07T07:13:56.078Z,68
2018-07-07T07:14:56.815Z,68
2018-07-07T07:15:57.535Z,68
2018-07-07T07:16:58.257Z,68
2018-07-07T07:17:58.979Z,68
2018-07-07T07:18:59.699Z,68
2018-07-07T07:20:00.435Z,68
2018-07-07T07:21:01.142Z,68
2018-07-07T07:22:01.866Z,68
2018-07-07T07:23:02.602Z,70
2018-07-07T07:24:03.328Z,70
2018-07-07T07:25:04.064Z,69
2018-07-07T07:26:04.867Z,69
2018-07-07T07:27:05.526Z,69
2018-07-07T07:28:06.248Z,68
2018-07-07T07:29:06.973Z,67
2018-07-07T07:30:07.712Z,65
2018-07-07T07:31:08.436Z,63
2018-07-07T07:32:09.160Z,61
2018-07-07T07:33:09.891Z,62
2018-07-07T07:34:10.612Z,61
2018-07-07T07:35:11.341Z,62
2018-07-07T07:36:12.077Z,61
2018-07-07T07:37:12.803Z,60
2018-07-07T07:38:13.543Z,58
2018-07-07T07:39:14.268Z,58
2018-07-07T07:40:15.008Z,58
2018-07-07T07:41:15.736Z,57
2018-07-07T07:42:16.460Z,57
2018-07-07T07:43:17.280Z,58
2018-07-07T07:44:17.932Z,57
2018-07-07T07:45:18.655Z,57
2018-07-07T07:46:19.383Z,58
2018-07-07T07:47:20.117Z,57
2018-07-07T07:48:20.846Z,58
2018-07-07T07:49:21.570Z,59
2018-07-07T07:50:22.296Z,59
2018-07-07T07:51:23.027Z,59
2018-07-07T07:52:23.769Z,58
2018-07-07T07:53:24.496Z,59
2018-07-07T07:54:25.238Z,59
2018-07-07T07:55:25.964Z,57
2018-07-07T07:56:26.693Z,56
2018-07-07T07:57:27.420Z,58
2018-07-07T07:58:28.151Z,57
2018-07-07T07:59:28.876Z,56
2018-07-07T08:00:29.619Z,55
2018-07-07T08:01:30.349Z,54
2018-07-07T08:02:31.079Z,54
2018-07-07T08:03:31.823Z,52
2018-07-07T08:04:32.556Z,52
2018-07-07T08:05:33.288Z,51
2018-07-07T08:06:34.018Z,51
2018-07-07T08:07:34.750Z,51
2018-07-07T08:08:35.487Z,52
2018-07-07T08:09:36.221Z,52
2018-07-07T08:10:36.954Z,51
2018-07-07T08:11:37.694Z,50
2018-07-07T08:12:38.431Z,48
2018-07-07T08:13:39.165Z,49
2018-07-07T08:14:39.896Z,47
2018-07-07T08:15:40.629Z,47
2018-07-07T08:16:41.362Z,46
2018-07-07T08:17:42.097Z,46
2018-07-07T08:18:42.829Z,47
2018-07-07T08:19:43.562Z,46
2018-07-07T08:20:44.307Z,46
2018-07-07T08:21:45.042Z,47
2018-07-07T08:22:45.775Z,46
2018-07-07T08:23:46.517Z,47
2018-07-07T08:24:47.250Z,47
2018-07-07T08:25:47.996Z,47
2018-07-07T08:26:48.728Z,48
2018-07-07T08:27:49.461Z,46
2018-07-07T08:28:50.196Z,46
2018-07-07T08:29:50.944Z,46
2018-07-07T08:30:51.678Z,44
2018-07-07T08:31:52.410Z,44
2018-07-07T08:32:53.143Z,42
2018-07-07T08:33:53.877Z,43
2018-07-07T08:34:54.610Z,43
2018-07-07T08:35:55.356Z,42
2018-07-07T08:36:56.090Z,42
2018-07-07T08:37:56.846Z,42
2018-07-07T08:38:57.579Z,40
2018-07-07T08:39:58.314Z,40
2018-07-07T08:40:59.053Z,40
2018-07-07T08:41:59.889Z,40
2018-07-07T08:43:00.536Z,41
2018-07-07T08:44:01.272Z,40
2018-07-07T08:45:02.021Z,40
2018-07-07T08:46:02.763Z,39
2018-07-07T08:47:03.502Z,38
2018-07-07T08:48:04.244Z,37
2018-07-07T08:49:04.986Z,37
2018-07-07T08:50:05.731Z,37
2018-07-07T08:51:06.500Z,37
2018-07-07T08:52:07.308Z,36
2018-07-07T08:53:08.077Z,36
2018-07-07T08:54:08.892Z,35
2018-07-07T08:55:09.708Z,35
2018-07-07T08:56:10.475Z,36
2018-07-07T08:57:11.242Z,35
2018-07-07T08:58:12.038Z,35
2018-07-07T08:59:12.804Z,36
2018-07-07T09:00:13.602Z,35
2018-07-07T09:01:14.373Z,35
2018-07-07T09:02:15.193Z,35
2018-07-07T09:03:15.921Z,35
2018-07-07T09:04:16.693Z,34
2018-07-07T09:05:17.467Z,35
2018-07-07T09:06:18.259Z,34
2018-07-07T09:07:18.999Z,34
2018-07-07T09:08:19.741Z,34
2018-07-07T09:09:20.480Z,35
2018-07-07T09:10:21.223Z,33
2018-07-07T09:11:21.963Z,33
2018-07-07T09:12:22.705Z,33
2018-07-07T09:13:23.462Z,34
2018-07-07T09:14:24.205Z,34
2018-07-07T09:15:24.946Z,34
2018-07-07T09:16:25.690Z,33
2018-07-07T09:17:26.432Z,32
2018-07-07T09:18:27.184Z,32
2018-07-07T09:19:27.938Z,31
2018-07-07T09:20:28.680Z,31
2018-07-07T09:21:29.441Z,31
2018-07-07T09:22:30.181Z,30
2018-07-07T09:23:30.933Z,31
2018-07-07T09:24:31.699Z,30
2018-07-07T09:25:32.436Z,31
2018-07-07T09:26:33.174Z,31
2018-07-07T09:27:33.908Z,30
2018-07-07T09:28:34.652Z,30
2018-07-07T09:29:35.402Z,30
2018-07-07T09:30:36.153Z,30
2018-07-07T09:31:36.894Z,29
2018-07-07T09:32:37.637Z,29
2018-07-07T09:33:38.388Z,29
2018-07-07T09:34:39.129Z,29
2018-07-07T09:35:39.872Z,29
2018-07-07T09:36:40.611Z,29
2018-07-07T09:37:41.352Z,29
2018-07-07T09:38:42.141Z,30
2018-07-07T09:39:42.848Z,31
2018-07-07T09:40:43.590Z,31
2018-07-07T09:41:44.334Z,31
2018-07-07T09:42:45.088Z,31
2018-07-07T09:43:45.828Z,31
2018-07-07T09:44:46.576Z,31
2018-07-07T09:45:47.313Z,30
2018-07-07T09:46:48.055Z,30
2018-07-07T09:47:48.797Z,31
2018-07-07T09:48:49.540Z,32
2018-07-07T09:49:50.296Z,33
2018-07-07T09:50:51.036Z,33
2018-07-07T09:51:51.777Z,32
2018-07-07T09:52:52.522Z,32
2018-07-07T09:53:53.255Z,31
2018-07-07T09:54:53.998Z,31
2018-07-07T09:55:54.735Z,30
2018-07-07T09:56:55.484Z,30
2018-07-07T09:57:56.222Z,30
2018-07-07T09:58:56.974Z,30
2018-07-07T09:59:57.713Z,30
2018-07-07T10:00:58.465Z,29
2018-07-07T10:01:59.272Z,29
2018-07-07T10:02:59.954Z,29
2018-07-07T10:04:00.705Z,28
2018-07-07T10:05:01.446Z,28
2018-07-07T10:06:02.195Z,28
2018-07-07T10:07:02.935Z,27
2018-07-07T10:08:03.675Z,28
2018-07-07T10:09:04.413Z,28
2018-07-07T10:10:05.153Z,28
2018-07-07T10:11:05.907Z,27
2018-07-07T10:12:06.647Z,27
2018-07-07T10:13:07.385Z,27
2018-07-07T10:14:08.127Z,28
2018-07-07T10:15:08.878Z,28
2018-07-07T10:16:09.614Z,28
2018-07-07T10:17:10.354Z,28
2018-07-07T10:18:11.092Z,28
2018-07-07T10:19:11.829Z,28
2018-07-07T10:20:12.570Z,28
2018-07-07T10:21:13.318Z,27
2018-07-07T10:22:14.072Z,27
2018-07-07T10:23:14.810Z,27
2018-07-07T10:24:15.563Z,27
2018-07-07T10:25:16.318Z,27
2018-07-07T10:26:17.091Z,28
2018-07-07T10:27:17.794Z,27
2018-07-07T10:28:18.548Z,28
2018-07-07T10:29:19.288Z,27
2018-07-07T10:30:20.026Z,27
2018-07-07T10:31:20.765Z,28
2018-07-07T10:32:21.544Z,28
2018-07-07T10:33:22.243Z,28
2018-07-07T10:34:22.982Z,28
2018-07-07T10:35:23.721Z,29
2018-07-07T10:36:24.458Z,28
2018-07-07T10:37:25.216Z,28
2018-07-07T10:38:25.951Z,28
2018-07-07T10:39:26.688Z,27
2018-07-07T10:40:27.426Z,28
2018-07-07T10:41:28.165Z,27
2018-07-07T10:42:28.905Z,27
2018-07-07T10:43:29.642Z,27
2018-07-07T10:44:30.381Z,28
2018-07-07T10:45:31.137Z,27
2018-07-07T10:46:31.857Z,27
2018-07-07T10:47:32.696Z,27
2018-07-07T10:48:33.343Z,27
2018-07-07T10:49:34.083Z,26
2018-07-07T10:50:34.827Z,27
2018-07-07T10:51:35.574Z,27
2018-07-07T10:52:36.311Z,28
2018-07-07T10:53:37.052Z,29
2018-07-07T10:54:37.791Z,30
2018-07-07T10:55:38.609Z,29
2018-07-07T10:56:39.278Z,29
2018-07-07T10:57:40.020Z,29
2018-07-07T10:58:40.798Z,27
2018-07-07T10:59:41.497Z,27
2018-07-07T11:00:42.237Z,26
2018-07-07T11:01:42.980Z,26
2018-07-07T11:02:43.714Z,27
2018-07-07T11:03:44.456Z,27
2018-07-07T11:04:45.206Z,26
2018-07-07T11:05:45.946Z,27
2018-07-07T11:06:46.703Z,28
2018-07-07T11:07:47.440Z,27
2018-07-07T11:08:48.182Z,27
2018-07-07T11:09:48.920Z,27
2018-07-07T11:10:49.658Z,27
2018-07-07T11:11:50.457Z,28
2018-07-07T11:12:51.131Z,28
2018-07-07T11:13:51.883Z,28
2018-07-07T11:14:52.632Z,28
2018-07-07T11:15:53.368Z,28
2018-07-07T11:16:54.107Z,28
2018-07-07T11:17:54.846Z,27
2018-07-07T11:18:55.582Z,27
2018-07-07T11:19:56.384Z,28
2018-07-07T11:20:57.061Z,27
2018-07-07T11:21:57.800Z,27
2018-07-07T11:22:58.540Z,27
2018-07-07T11:23:59.278Z,27
2018-07-07T11:25:00.028Z,27
2018-07-07T11:26:00.768Z,27
2018-07-07T11:27:01.522Z,28
2018-07-07T11:28:02.257Z,26
2018-07-07T11:29:02.996Z,26
2018-07-07T11:30:03.737Z,25
2018-07-07T11:31:04.476Z,25
2018-07-07T11:32:05.216Z,25
2018-07-07T11:33:05.958Z,25
2018-07-07T11:34:06.696Z,25
2018-07-07T11:35:07.433Z,25
2018-07-07T11:36:08.172Z,25
2018-07-07T11:37:08.909Z,25
2018-07-07T11:38:09.664Z,26
2018-07-07T11:39:10.403Z,25
2018-07-07T11:40:11.143Z,25
2018-07-07T11:41:11.882Z,25
2018-07-07T11:42:12.644Z,25
2018-07-07T11:43:13.363Z,25
2018-07-07T11:44:14.100Z,25
2018-07-07T11:45:14.843Z,25
2018-07-07T11:46:15.579Z,25
2018-07-07T11:47:16.319Z,25
2018-07-07T11:48:17.060Z,24
2018-07-07T11:49:17.798Z,24
2018-07-07T11:50:18.564Z,24
2018-07-07T11:51:19.276Z,24
2018-07-07T11:52:20.030Z,24
2018-07-07T11:53:20.770Z,24
2018-07-07T11:54:21.521Z,24
2018-07-07T11:55:22.261Z,24
2018-07-07T11:56:23.001Z,24
2018-07-07T11:57:23.754Z,25
2018-07-07T11:58:24.509Z,25
2018-07-07T11:59:25.247Z,26
2018-07-07T12:00:26.000Z,26
2018-07-07T12:01:26.739Z,26
2018-07-07T12:02:27.478Z,26
2018-07-07T12:03:28.218Z,26
2018-07-07T12:04:29.031Z,26
2018-07-07T12:05:29.696Z,27
2018-07-07T12:06:30.437Z,27
2018-07-07T12:07:31.176Z,26
2018-07-07T12:08:31.983Z,26
2018-07-07T12:09:32.663Z,26
2018-07-07T12:10:33.415Z,25
2018-07-07T12:11:34.190Z,24
2018-07-07T12:12:34.898Z,25
2018-07-07T12:13:35.637Z,25
2018-07-07T12:14:36.376Z,25
2018-07-07T12:15:37.129Z,26
2018-07-07T12:16:37.865Z,26
2018-07-07T12:17:38.604Z,26
2018-07-07T12:18:39.354Z,26
2018-07-07T12:19:40.106Z,26
2018-07-07T12:20:40.847Z,26
2018-07-07T12:21:41.592Z,26
2018-07-07T12:22:42.322Z,26
2018-07-07T12:23:43.062Z,26
2018-07-07T12:24:43.865Z,26
2018-07-07T12:25:44.546Z,26
2018-07-07T12:26:45.298Z,26
2018-07-07T12:27:46.048Z,26
2018-07-07T12:28:46.789Z,26
2018-07-07T12:29:47.543Z,26
2018-07-07T12:30:48.283Z,27
2018-07-07T12:31:49.033Z,27
2018-07-07T12:32:49.772Z,27
2018-07-07T12:33:50.523Z,27
2018-07-07T12:34:51.262Z,27
2018-07-07T12:35:52.001Z,28
2018-07-07T12:36:52.743Z,27
2018-07-07T12:37:53.516Z,27
2018-07-07T12:38:54.257Z,26
2018-07-07T12:39:54.994Z,26
2018-07-07T12:40:55.757Z,26
2018-07-07T12:41:56.498Z,27
2018-07-07T12:42:57.236Z,26
2018-07-07T12:43:57.973Z,26
2018-07-07T12:44:58.727Z,26
2018-07-07T12:45:59.602Z,26
2018-07-07T12:47:00.203Z,26
2018-07-07T12:48:00.940Z,26
2018-07-07T12:49:01.679Z,26
2018-07-07T12:50:02.418Z,25
2018-07-07T12:51:03.187Z,26
2018-07-07T12:52:04.056Z,25
2018-07-07T12:53:04.671Z,25
2018-07-07T12:54:05.408Z,26
2018-07-07T12:55:06.145Z,26
2018-07-07T12:56:06.888Z,26
2018-07-07T12:57:07.623Z,26
2018-07-07T12:58:08.360Z,26
2018-07-07T12:59:09.098Z,26
2018-07-07T13:00:09.837Z,26
2018-07-07T13:01:10.636Z,26
2018-07-07T13:02:11.313Z,26
2018-07-07T13:03:12.051Z,26
2018-07-07T13:04:12.787Z,26
2018-07-07T13:05:13.541Z,26
2018-07-07T13:06:14.282Z,26
2018-07-07T13:07:15.022Z,26
2018-07-07T13:08:15.760Z,26
2018-07-07T13:09:16.500Z,26
2018-07-07T13:10:17.250Z,26
2018-07-07T13:11:17.987Z,26
2018-07-07T13:12:18.724Z,26
2018-07-07T13:13:19.463Z,26
2018-07-07T13:14:20.216Z,26
2018-07-07T13:15:20.952Z,26
2018-07-07T13:16:21.690Z,26
2018-07-07T13:17:22.427Z,26
2018-07-07T13:18:23.165Z,26
2018-07-07T13:19:23.904Z,26
2018-07-07T13:20:24.655Z,26
2018-07-07T13:21:25.392Z,25
2018-07-07T13:22:26.130Z,25
2018-07-07T13:23:26.869Z,25
2018-07-07T13:24:27.606Z,25
2018-07-07T13:25:28.344Z,24
2018-07-07T13:26:29.192Z,24
2018-07-07T13:27:29.817Z,24
2018-07-07T13:28:30.554Z,23
2018-07-07T13:29:31.292Z,23
2018-07-07T13:30:32.032Z,23
2018-07-07T13:31:32.769Z,23
2018-07-07T13:32:33.507Z,22
2018-07-07T13:33:34.247Z,23
2018-07-07T13:34:34.985Z,24
2018-07-07T13:35:35.720Z,23
2018-07-07T13:36:36.459Z,24
2018-07-07T13:37:37.198Z,25
2018-07-07T13:38:37.939Z,24
2018-07-07T13:39:38.678Z,24
2018-07-07T13:40:39.413Z,24
2018-07-07T13:41:40.164Z,23
2018-07-07T13:42:40.902Z,24
2018-07-07T13:43:41.640Z,24
2018-07-07T13:44:42.378Z,25
2018-07-07T13:45:43.131Z,25
2018-07-07T13:46:43.866Z,25
2018-07-07T13:47:44.604Z,24
2018-07-07T13:48:45.343Z,25
2018-07-07T13:49:46.080Z,25
2018-07-07T13:50:46.820Z,25
2018-07-07T13:51:47.557Z,25
2018-07-07T13:52:48.302Z,25
2018-07-07T13:53:49.032Z,25
2018-07-07T13:54:49.785Z,26
2018-07-07T13:55:50.523Z,27
2018-07-07T13:56:51.259Z,26
2018-07-07T13:57:51.998Z,27
2018-07-07T13:58:52.736Z,26
2018-07-07T13:59:53.475Z,26
2018-07-07T14:00:54.213Z,27
2018-07-07T14:01:54.950Z,26
2018-07-07T14:02:55.688Z,27
2018-07-07T14:03:56.440Z,26
2018-07-07T14:04:57.181Z,26
2018-07-07T14:05:57.918Z,26
2018-07-07T14:06:58.671Z,26
2018-07-07T14:07:59.423Z,26
2018-07-07T14:09:00.159Z,26
2018-07-07T14:10:00.895Z,26
2018-07-07T14:11:01.634Z,27
2018-07-07T14:12:02.370Z,27
2018-07-07T14:13:03.110Z,27
2018-07-07T14:14:03.849Z,28
2018-07-07T14:15:04.591Z,27
2018-07-07T14:16:05.334Z,27
2018-07-07T14:17:06.158Z,27
2018-07-07T14:18:06.819Z,28
2018-07-07T14:19:07.560Z,27
2018-07-07T14:20:08.300Z,28
2018-07-07T14:21:09.042Z,27
2018-07-07T14:22:09.784Z,28
2018-07-07T14:23:10.521Z,28
2018-07-07T14:24:11.262Z,28
2018-07-07T14:25:12.000Z,28
2018-07-07T14:26:12.738Z,28